Home   Weather   Russia   Yekaterinburg   Past weeks
Flag for Russia

Past Weather in Yekaterinburg, Russia — Yesterday and Last 2 Weeks

Currently: 90 °F. Sunny. (Weather station: Ekaterinburg, Russia). See more current weather

Past Weather in Yekaterinburg — Graph

°F

Yekaterinburg Temperature Yesterday

Maximum temperature yesterday: 88 °F (at 12:30 pm)
Minimum temperature yesterday: 46 °F (at 3:30 am)
Average temperature yesterday: 71 °F

High & Low Weather Summary for the Past Weeks

 TemperatureHumidityPressure
High91 °F (May 16, 3:30 pm)100% (May 2, 10:00 am)30.39 "Hg (May 2, 10:00 am)
Low27 °F (May 7, 3:00 am)13% (May 11, 4:30 pm)29.36 "Hg (May 5, 5:00 pm)
Average60 °F48%30.06 "Hg
* Reported May 1 5:00 pm — May 16 5:00 pm, Yekaterinburg. Weather by CustomWeather, © 2021

Note: Actual official high and low records may vary slightly from our data, if they occured in-between our weather recording intervals... More about our weather records

Yekaterinburg Weather History for the Previous 24 Hours

Scroll right to see more
 ConditionsComfort  
Time TempWeatherWind HumidityBarometerVisibility
5:00 pm
Sun, May 16
90 °FSunny.17 mph16%30.04 "Hg10 mi
4:30 pm90 °FPassing clouds.17 mph17%30.07 "HgN/A
4:00 pm90 °FSunny.15 mph16%30.07 "Hg10 mi
3:30 pm91 °FSunny.13 mph17%30.07 "Hg10 mi
3:00 pm90 °FSunny.15 mph16%30.07 "Hg10 mi
2:30 pm90 °FPassing clouds.20 mph17%30.07 "HgN/A
2:00 pm90 °FSunny.17 mph18%30.09 "Hg10 mi
1:30 pm90 °FSunny.22 mph17%30.09 "Hg10 mi
1:00 pm90 °FSunny.20 mph16%30.09 "Hg10 mi
12:30 pm88 °FSunny.15 mph18%30.09 "Hg10 mi
12:00 pm88 °FSunny.20 mph17%30.09 "Hg10 mi
11:30 am86 °FSunny.17 mph19%30.09 "Hg10 mi
11:00 am86 °FSunny.20 mph20%30.09 "Hg10 mi
10:30 am86 °FSunny.15 mph20%30.09 "Hg10 mi
10:00 am82 °FSunny.13 mph25%30.09 "Hg10 mi
9:30 am82 °FSunny.13 mph25%30.09 "Hg10 mi
9:00 am81 °FSunny.13 mph30%30.09 "Hg10 mi
8:30 am77 °FSunny.1 mph34%30.09 "Hg10 mi
8:00 am73 °FSunny.1 mph41%30.09 "Hg10 mi
7:30 am73 °FSunny.No wind38%30.09 "Hg10 mi
7:00 am66 °FSunny.No wind64%30.09 "Hg10 mi
6:30 am59 °FSunny.1 mph72%30.09 "Hg10 mi
6:00 am55 °FSunny.No wind72%30.09 "Hg10 mi
5:30 am57 °FSunny.No wind67%30.09 "Hg10 mi
4:30 am54 °FClear.No wind77%30.07 "Hg10 mi
4:00 am54 °FClear.No wind82%30.07 "Hg6 mi
3:30 am54 °FClear.No wind77%30.07 "Hg10 mi
3:00 am54 °FClear.No wind77%30.07 "Hg10 mi
2:30 am57 °FClear.1 mph72%30.07 "Hg10 mi
2:00 am55 °FClear.No wind72%30.07 "Hg10 mi
1:30 am57 °FClear.No wind72%30.07 "Hg10 mi
1:00 am57 °FClear.No wind77%30.07 "Hg10 mi
12:30 am59 °FClear.1 mph68%30.07 "Hg10 mi
12:00 am57 °FClear.1 mph77%30.07 "Hg10 mi
11:30 pm
Sat, May 15
59 °FClear.No wind72%30.07 "Hg10 mi
11:00 pm63 °FClear.No wind64%30.07 "Hg10 mi
10:30 pm70 °FClear.3 mph46%30.07 "Hg10 mi
10:00 pm72 °FPassing clouds.3 mph47%30.07 "HgN/A
9:30 pm72 °FClear.1 mph47%30.07 "Hg10 mi
9:00 pm73 °FSunny.6 mph41%30.07 "Hg10 mi
8:30 pm77 °FSunny.8 mph36%30.07 "Hg10 mi
8:00 pm81 °FSunny.13 mph32%30.07 "Hg10 mi
7:30 pm84 °FSunny.17 mph27%30.07 "Hg10 mi
7:00 pm84 °FSunny.20 mph25%30.07 "Hg10 mi
6:30 pm84 °FSunny.13 mph27%30.07 "Hg10 mi
Weather by CustomWeather, © 2021

See weather overview